Time;durP1;ratioP1;P1;durP2;ratioP2;P2;SDS_P1;SDS_P2;PMS_P1;PMS_P2;Temp;Humidity;BMP_temperature;BMP_pressure;BME280_temperature;BME280_humidity;BME280_pressure;Samples;Min_cycle;Max_cycle;Signal;HPM_P1;HPM_P2
2020/12/29 00:00:30;;;;;;;9.48;8.52;;;4.70;99.90;;;;;;4984819;28;20571;-84
2020/12/29 00:02:58;;;;;;;9.67;7.77;;;4.70;99.90;;;;;;4967979;28;20264;-84
2020/12/29 00:05:24;;;;;;;8.77;7.97;;;4.70;99.90;;;;;;4957793;28;20217;-85
2020/12/29 00:07:54;;;;;;;8.73;7.93;;;4.70;99.90;;;;;;4987407;28;20317;-85
2020/12/29 00:10:23;;;;;;;9.40;8.50;;;4.60;99.90;;;;;;4988875;28;20228;-86
2020/12/29 00:12:50;;;;;;;10.43;9.30;;;4.60;99.90;;;;;;5007442;28;20225;-87
2020/12/29 00:15:16;;;;;;;10.73;8.93;;;4.50;99.90;;;;;;4997327;28;20217;-83
2020/12/29 00:17:43;;;;;;;10.82;9.63;;;4.50;99.90;;;;;;4992793;28;20346;-84
2020/12/29 00:20:10;;;;;;;10.93;9.77;;;4.50;99.90;;;;;;4977949;28;20211;-84
2020/12/29 00:22:39;;;;;;;9.50;8.53;;;4.60;99.90;;;;;;4976468;28;20237;-84
2020/12/29 00:25:05;;;;;;;9.47;8.67;;;4.60;99.90;;;;;;4974854;28;20693;-84
2020/12/29 00:27:32;;;;;;;11.23;9.77;;;4.60;99.90;;;;;;4988156;28;20213;-84
2020/12/29 00:29:59;;;;;;;10.10;9.10;;;4.60;99.90;;;;;;4972221;28;20276;-84
2020/12/29 00:32:25;;;;;;;12.10;10.97;;;4.60;99.90;;;;;;4992641;28;20232;-84
2020/12/29 00:34:52;;;;;;;11.07;9.97;;;4.60;99.90;;;;;;4974483;28;20202;-84
2020/12/29 00:37:19;;;;;;;12.50;11.17;;;4.60;99.90;;;;;;4972567;28;20600;-84
2020/12/29 00:39:46;;;;;;;14.65;11.77;;;4.60;99.90;;;;;;4970211;28;20201;-84
2020/12/29 00:42:13;;;;;;;11.57;10.37;;;4.40;99.90;;;;;;4992937;28;20245;-84
2020/12/29 00:44:40;;;;;;;11.73;10.63;;;4.30;99.90;;;;;;4971599;28;20713;-84
2020/12/29 00:47:06;;;;;;;13.93;11.50;;;4.30;99.90;;;;;;4976976;28;20284;-84
2020/12/29 00:49:38;;;;;;;17.20;14.63;;;4.20;99.90;;;;;;4978322;28;20194;-84
2020/12/29 00:52:05;;;;;;;15.10;13.38;;;4.20;99.90;;;;;;4997025;28;20562;-84
2020/12/29 00:54:43;;;;;;;13.37;12.00;;;4.20;99.90;;;;;;4985606;28;20189;-85
2020/12/29 00:57:15;;;;;;;12.60;11.30;;;4.40;99.90;;;;;;4965560;28;20209;-83
2020/12/29 00:59:41;;;;;;;16.87;14.73;;;4.20;99.90;;;;;;4981938;28;20296;-84
2020/12/29 01:02:08;;;;;;;14.60;13.13;;;4.10;99.90;;;;;;4980954;28;20236;-84
2020/12/29 01:04:53;;;;;;;18.67;15.67;;;4.10;99.90;;;;;;4997468;28;20217;-84
2020/12/29 01:07:20;;;;;;;15.00;13.50;;;4.30;99.90;;;;;;4984804;28;20233;-85
2020/12/29 01:09:47;;;;;;;12.77;11.43;;;4.30;99.90;;;;;;5003599;28;20217;-87
2020/12/29 01:12:14;;;;;;;15.77;13.13;;;4.00;99.90;;;;;;4980301;28;20225;-86
2020/12/29 01:14:43;;;;;;;12.63;11.33;;;4.00;99.90;;;;;;4994935;28;20220;-85
2020/12/29 01:17:18;;;;;;;13.30;11.90;;;4.10;99.90;;;;;;4963714;28;20205;-85
2020/12/29 01:19:44;;;;;;;13.37;11.97;;;4.00;99.90;;;;;;4978840;28;20614;-84
2020/12/29 01:22:11;;;;;;;14.67;12.63;;;4.00;99.90;;;;;;4999688;28;20225;-84
2020/12/29 01:24:37;;;;;;;11.73;10.63;;;4.20;99.90;;;;;;4999298;28;20636;-85
2020/12/29 01:27:05;;;;;;;11.85;10.75;;;3.80;99.90;;;;;;4974417;28;20205;-85
2020/12/29 01:29:32;;;;;;;14.57;13.07;;;3.70;99.90;;;;;;4988184;28;20198;-85
2020/12/29 01:31:59;;;;;;;13.27;11.87;;;3.50;99.90;;;;;;4987715;28;20784;-84
2020/12/29 01:34:25;;;;;;;13.43;12.03;;;3.50;99.90;;;;;;4967524;28;20216;-87
2020/12/29 01:37:11;;;;;;;18.07;14.30;;;3.40;99.90;;;;;;4995850;28;20212;-85
2020/12/29 01:39:37;;;;;;;15.83;14.17;;;3.20;99.90;;;;;;4986193;28;20197;-85
2020/12/29 01:42:48;;;;;;;12.73;11.07;;;3.20;99.90;;;;;;5006551;28;20249;-85
2020/12/29 01:45:18;;;;;;;14.33;11.57;;;3.10;99.90;;;;;;5004887;28;20232;-86
2020/12/29 01:47:47;;;;;;;12.30;11.07;;;3.00;99.90;;;;;;5016152;28;20204;-88
2020/12/29 01:50:16;;;;;;;13.33;10.93;;;3.00;99.90;;;;;;5000250;28;20173;-88
2020/12/29 01:52:42;;;;;;;13.27;11.87;;;3.00;99.90;;;;;;5017684;28;20241;-89
2020/12/29 01:55:10;;;;;;;12.77;10.60;;;3.20;99.90;;;;;;5017322;28;20243;-88
2020/12/29 01:57:37;;;;;;;13.33;11.93;;;3.00;99.90;;;;;;5000631;28;20185;-88
2020/12/29 02:00:09;;;;;;;12.77;11.50;;;2.90;99.90;;;;;;5000777;28;20197;-84
2020/12/29 02:02:40;;;;;;;13.50;12.20;;;2.90;99.90;;;;;;5001256;28;20230;-85
2020/12/29 02:05:08;;;;;;;13.63;11.47;;;2.90;99.90;;;;;;4978078;28;20218;-85
2020/12/29 02:07:36;;;;;;;14.23;11.60;;;2.80;99.90;;;;;;4979832;28;20206;-84
2020/12/29 02:10:03;;;;;;;13.43;12.03;;;2.80;99.90;;;;;;4971328;28;20206;-86
2020/12/29 02:12:33;;;;;;;13.20;11.83;;;2.70;99.90;;;;;;4987374;28;20232;-84
2020/12/29 02:15:00;;;;;;;13.80;12.13;;;2.80;99.90;;;;;;4971189;28;20617;-85
2020/12/29 02:17:28;;;;;;;12.33;11.13;;;3.00;99.90;;;;;;5004018;28;20744;-85
2020/12/29 02:19:56;;;;;;;13.33;11.93;;;2.90;99.90;;;;;;4999204;28;20588;-85
2020/12/29 02:22:25;;;;;;;12.77;11.43;;;2.90;99.90;;;;;;4978116;28;20229;-85
2020/12/29 02:24:54;;;;;;;12.37;11.07;;;2.90;99.90;;;;;;4999625;28;20231;-84
2020/12/29 02:27:22;;;;;;;15.05;11.05;;;3.00;99.90;;;;;;4962829;28;20206;-85
2020/12/29 02:29:49;;;;;;;11.60;10.50;;;3.00;99.90;;;;;;4999123;28;20249;-85
2020/12/29 02:32:16;;;;;;;11.83;10.63;;;3.00;99.90;;;;;;4998830;28;20225;-85
2020/12/29 02:34:43;;;;;;;13.53;10.83;;;3.30;99.90;;;;;;4995859;28;20190;-85
2020/12/29 02:37:10;;;;;;;12.60;11.37;;;3.00;99.90;;;;;;4996027;28;20572;-87
2020/12/29 02:39:39;;;;;;;11.73;10.47;;;3.00;99.90;;;;;;4985864;28;20666;-87
2020/12/29 02:42:06;;;;;;;10.63;9.63;;;3.00;99.90;;;;;;4990647;28;20308;-87
2020/12/29 02:44:33;;;;;;;13.20;10.93;;;2.90;99.90;;;;;;4998068;28;20276;-87
2020/12/29 02:46:59;;;;;;;11.73;10.57;;;2.90;99.90;;;;;;4998007;28;20213;-87
2020/12/29 02:49:26;;;;;;;11.10;10.03;;;2.90;99.90;;;;;;4993305;28;20232;-87
2020/12/29 02:51:56;;;;;;;11.23;10.07;;;2.90;99.90;;;;;;4997087;28;20217;-87
2020/12/29 02:54:24;;;;;;;11.33;9.77;;;2.80;99.90;;;;;;4997527;28;20193;-87
2020/12/29 02:56:54;;;;;;;10.57;9.47;;;2.80;99.90;;;;;;4997556;28;20682;-87
2020/12/29 02:59:21;;;;;;;11.37;10.27;;;2.80;99.90;;;;;;5004837;28;20205;-88
2020/12/29 03:01:49;;;;;;;10.93;9.97;;;2.90;99.90;;;;;;4995107;28;20236;-87
2020/12/29 03:04:16;;;;;;;10.47;9.47;;;2.80;99.90;;;;;;5002313;28;20225;-86
2020/12/29 03:06:43;;;;;;;11.63;10.53;;;2.80;99.90;;;;;;4996036;28;20209;-88
2020/12/29 03:09:10;;;;;;;9.60;8.70;;;2.80;99.90;;;;;;4983546;28;20205;-86
2020/12/29 03:11:36;;;;;;;11.33;10.10;;;2.70;99.90;;;;;;4978557;28;20279;-85
2020/12/29 03:14:05;;;;;;;11.87;10.70;;;2.60;99.90;;;;;;4981761;28;20272;-87
2020/12/29 03:16:32;;;;;;;11.47;10.03;;;2.60;99.90;;;;;;4978865;28;20268;-87
2020/12/29 03:19:01;;;;;;;11.37;10.20;;;2.60;99.90;;;;;;4997472;28;20211;-87
2020/12/29 03:21:27;;;;;;;11.83;10.63;;;2.50;99.90;;;;;;4995437;28;20221;-86
2020/12/29 03:23:54;;;;;;;14.97;12.00;;;2.60;99.90;;;;;;4993989;28;20325;-86
2020/12/29 03:26:21;;;;;;;13.57;11.53;;;2.50;99.90;;;;;;4995265;28;20582;-87
2020/12/29 03:28:48;;;;;;;9.75;8.80;;;2.50;99.90;;;;;;4995851;28;20192;-86
2020/12/29 03:31:16;;;;;;;9.73;8.80;;;2.50;99.90;;;;;;4961197;28;20708;-87
2020/12/29 03:33:44;;;;;;;10.00;9.10;;;2.50;99.90;;;;;;4960938;28;20276;-86
2020/12/29 03:36:11;;;;;;;9.17;8.27;;;2.40;99.90;;;;;;4960710;28;20209;-86
2020/12/29 03:38:37;;;;;;;9.80;8.90;;;2.40;99.90;;;;;;4994167;28;20201;-86
2020/12/29 03:41:04;;;;;;;9.37;8.53;;;2.40;99.90;;;;;;4993430;28;20229;-86
2020/12/29 03:43:31;;;;;;;8.43;7.63;;;2.40;99.90;;;;;;5013854;28;20207;-86
2020/12/29 03:45:57;;;;;;;9.47;8.20;;;2.40;99.90;;;;;;5013889;28;20228;-86
2020/12/29 03:48:25;;;;;;;9.68;8.68;;;2.60;99.90;;;;;;5000853;28;20296;-86
2020/12/29 03:50:52;;;;;;;9.67;8.77;;;2.30;99.90;;;;;;4961247;28;20293;-86
2020/12/29 03:53:19;;;;;;;8.63;7.93;;;2.30;99.90;;;;;;4994194;28;20208;-86
2020/12/29 03:55:45;;;;;;;10.00;8.97;;;2.20;99.90;;;;;;4994309;28;20199;-85
2020/12/29 03:58:12;;;;;;;10.63;9.53;;;2.20;99.90;;;;;;4991408;28;20619;-86
2020/12/29 04:00:39;;;;;;;9.70;8.73;;;2.30;99.90;;;;;;4996808;28;20224;-86
2020/12/29 04:03:05;;;;;;;9.23;8.33;;;2.30;99.90;;;;;;5014605;28;20224;-86
2020/12/29 04:05:33;;;;;;;9.80;8.80;;;2.30;99.90;;;;;;5012877;28;20292;-86
2020/12/29 04:08:00;;;;;;;9.83;8.83;;;2.20;99.90;;;;;;4997082;28;20200;-86
2020/12/29 04:10:27;;;;;;;9.17;8.30;;;2.10;99.90;;;;;;5025996;28;20203;-88
2020/12/29 04:12:53;;;;;;;10.13;8.13;;;2.10;99.90;;;;;;5019836;28;20243;-88
2020/12/29 04:15:20;;;;;;;9.53;8.63;;;2.10;99.90;;;;;;5014150;28;20200;-88
2020/12/29 04:17:46;;;;;;;9.73;8.73;;;2.10;99.90;;;;;;5016308;28;20189;-89
2020/12/29 04:20:13;;;;;;;10.17;9.17;;;2.20;99.90;;;;;;5016659;28;20225;-86
2020/12/29 04:22:42;;;;;;;10.30;9.07;;;2.20;99.90;;;;;;5016403;28;20225;-87
2020/12/29 04:25:09;;;;;;;8.93;8.17;;;2.20;99.90;;;;;;5007227;28;20273;-86
2020/12/29 04:27:36;;;;;;;10.77;9.70;;;2.20;99.90;;;;;;4993766;28;20193;-86
2020/12/29 04:30:05;;;;;;;10.23;9.32;;;2.20;99.90;;;;;;4999237;28;20201;-86
2020/12/29 04:32:31;;;;;;;11.00;9.90;;;2.20;99.90;;;;;;5001957;28;20288;-86
2020/12/29 04:34:58;;;;;;;11.43;9.57;;;2.20;99.90;;;;;;4982322;28;20201;-86
2020/12/29 04:37:24;;;;;;;10.20;9.30;;;2.20;99.90;;;;;;4999206;28;20284;-86
2020/12/29 04:39:52;;;;;;;10.07;9.07;;;2.30;99.90;;;;;;4999001;28;20339;-86
2020/12/29 04:42:21;;;;;;;10.07;9.03;;;2.20;99.90;;;;;;4999056;28;20214;-86
2020/12/29 04:44:47;;;;;;;10.00;9.00;;;2.10;99.90;;;;;;4999481;28;20252;-86
2020/12/29 04:47:14;;;;;;;10.13;9.13;;;2.10;99.90;;;;;;4998725;28;20201;-87
2020/12/29 04:49:40;;;;;;;9.07;8.17;;;2.10;99.90;;;;;;4997651;28;20212;-86
2020/12/29 04:52:08;;;;;;;10.53;9.43;;;2.10;99.90;;;;;;4997406;28;20245;-86
2020/12/29 04:54:37;;;;;;;9.77;8.77;;;2.10;99.90;;;;;;4979589;28;20277;-86
2020/12/29 04:57:06;;;;;;;10.43;9.37;;;2.20;99.90;;;;;;4997337;28;20201;-86
2020/12/29 04:59:33;;;;;;;8.67;7.87;;;2.20;99.90;;;;;;4998613;28;20200;-86
2020/12/29 05:02:01;;;;;;;10.87;9.53;;;2.30;99.90;;;;;;4997346;28;20827;-86
2020/12/29 05:04:29;;;;;;;10.37;9.37;;;2.00;99.90;;;;;;4997146;28;20315;-86
2020/12/29 05:06:56;;;;;;;10.57;9.57;;;2.20;99.90;;;;;;4979320;28;20253;-87
2020/12/29 05:09:24;;;;;;;9.40;8.37;;;2.00;99.90;;;;;;4997985;28;20288;-87
2020/12/29 05:11:51;;;;;;;11.23;10.03;;;1.90;99.90;;;;;;5017171;28;20220;-85
2020/12/29 05:14:19;;;;;;;10.73;9.67;;;1.90;99.90;;;;;;5000181;28;20260;-86
2020/12/29 05:16:45;;;;;;;9.70;8.67;;;1.80;99.90;;;;;;5017073;28;20279;-86
2020/12/29 05:19:13;;;;;;;11.00;9.90;;;1.80;99.90;;;;;;5017299;28;20196;-86
2020/12/29 05:21:41;;;;;;;11.47;10.30;;;1.80;99.90;;;;;;4998742;28;20228;-86
2020/12/29 05:24:14;;;;;;;9.77;8.77;;;1.90;99.90;;;;;;5016784;28;20196;-86
2020/12/29 05:26:43;;;;;;;11.10;10.00;;;1.80;99.90;;;;;;4999246;28;20204;-87
2020/12/29 05:29:12;;;;;;;11.47;8.97;;;1.80;99.90;;;;;;5002824;28;20232;-86
2020/12/29 05:31:41;;;;;;;9.60;8.53;;;1.80;99.90;;;;;;4998865;28;20217;-87
2020/12/29 05:34:16;;;;;;;10.50;9.27;;;1.80;99.90;;;;;;4999801;28;20207;-86
2020/12/29 05:36:44;;;;;;;11.30;9.27;;;1.80;99.90;;;;;;4998776;28;20215;-86
2020/12/29 05:39:11;;;;;;;10.47;9.50;;;1.80;99.90;;;;;;4981167;28;20659;-86
2020/12/29 05:41:40;;;;;;;8.80;7.97;;;2.00;99.90;;;;;;4981634;28;20236;-86
2020/12/29 05:44:08;;;;;;;10.07;9.07;;;2.10;99.90;;;;;;4999043;28;20205;-86
2020/12/29 05:46:35;;;;;;;10.40;8.33;;;1.90;99.90;;;;;;4999339;28;20355;-88
2020/12/29 05:49:04;;;;;;;8.97;8.07;;;1.90;99.90;;;;;;5002846;28;20201;-85
2020/12/29 05:51:32;;;;;;;9.20;7.73;;;1.90;99.90;;;;;;5020562;28;20225;-87
2020/12/29 05:54:03;;;;;;;11.00;8.83;;;1.90;99.90;;;;;;5020143;28;20173;-87
2020/12/29 05:56:32;;;;;;;9.23;8.13;;;2.00;99.90;;;;;;5020636;28;20173;-88
2020/12/29 05:59:01;;;;;;;7.97;7.17;;;1.90;99.90;;;;;;5003116;28;20203;-87
2020/12/29 06:01:39;;;;;;;8.27;7.57;;;1.90;99.90;;;;;;5002837;28;20233;-90
2020/12/29 06:04:06;;;;;;;10.03;8.73;;;2.00;99.90;;;;;;5017268;28;20275;-89
2020/12/29 06:06:34;;;;;;;9.80;8.03;;;2.00;99.90;;;;;;5021372;28;20200;-86
2020/12/29 06:09:03;;;;;;;8.10;7.30;;;2.00;99.90;;;;;;4991460;28;20197;-86
2020/12/29 06:11:41;;;;;;;9.13;8.23;;;2.00;99.90;;;;;;4997202;28;20247;-86
2020/12/29 06:14:13;;;;;;;8.70;7.77;;;2.00;99.90;;;;;;4997995;28;20197;-86
2020/12/29 06:16:41;;;;;;;11.77;8.17;;;2.00;99.90;;;;;;4986535;28;20259;-86
2020/12/29 06:19:23;;;;;;;8.37;7.50;;;2.00;99.90;;;;;;5001930;28;20218;-86
2020/12/29 06:22:02;;;;;;;9.07;8.13;;;1.90;99.90;;;;;;4998434;28;20232;-89
2020/12/29 06:24:30;;;;;;;9.37;8.33;;;1.90;99.90;;;;;;5017175;28;20303;-86
2020/12/29 06:26:59;;;;;;;9.13;8.20;;;1.90;99.90;;;;;;5019392;28;20212;-86
2020/12/29 06:29:31;;;;;;;11.03;9.90;;;1.90;99.90;;;;;;5001399;28;20287;-87
2020/12/29 06:32:02;;;;;;;9.67;7.93;;;1.90;99.90;;;;;;5017803;28;20315;-86
2020/12/29 06:34:32;;;;;;;9.47;8.57;;;1.90;99.90;;;;;;5007865;28;20198;-86
2020/12/29 06:37:10;;;;;;;8.83;7.93;;;1.90;99.90;;;;;;4998018;28;20292;-86
2020/12/29 06:39:40;;;;;;;9.23;8.03;;;1.90;99.90;;;;;;4997065;28;20193;-86
2020/12/29 06:42:07;;;;;;;11.33;8.77;;;1.90;99.90;;;;;;4997325;28;20235;-86
2020/12/29 06:44:34;;;;;;;10.33;6.93;;;2.10;99.90;;;;;;4997309;28;20363;-86
2020/12/29 06:47:07;;;;;;;11.23;8.33;;;2.00;99.90;;;;;;4997294;28;20225;-86
2020/12/29 06:49:35;;;;;;;7.97;7.27;;;2.10;99.90;;;;;;4996444;28;20190;-86
2020/12/29 06:52:17;;;;;;;8.73;7.63;;;2.10;99.90;;;;;;4995570;28;20254;-86
2020/12/29 06:54:48;;;;;;;8.05;6.80;;;2.10;99.90;;;;;;4996036;28;20197;-86
2020/12/29 06:57:15;;;;;;;8.13;6.53;;;2.20;99.90;;;;;;4995334;28;20201;-86
2020/12/29 06:59:42;;;;;;;7.23;6.53;;;2.30;99.90;;;;;;4995799;28;20196;-86
2020/12/29 07:02:18;;;;;;;10.47;7.17;;;2.30;99.90;;;;;;5005922;28;20220;-86
2020/12/29 07:04:52;;;;;;;8.60;7.77;;;2.10;99.90;;;;;;5007410;28;20251;-86
2020/12/29 07:07:32;;;;;;;7.87;7.17;;;2.10;99.90;;;;;;4961942;28;20209;-86
2020/12/29 07:10:00;;;;;;;8.27;7.40;;;2.20;99.90;;;;;;4996120;28;20677;-86
2020/12/29 07:12:30;;;;;;;10.43;7.60;;;2.10;99.90;;;;;;4977033;28;20526;-86
2020/12/29 07:15:01;;;;;;;8.17;7.23;;;2.00;99.90;;;;;;4997711;28;20200;-86
2020/12/29 07:17:31;;;;;;;8.37;7.20;;;2.00;99.90;;;;;;4996045;28;20195;-87
2020/12/29 07:19:58;;;;;;;9.73;8.73;;;2.10;99.90;;;;;;4979970;28;20212;-86
2020/12/29 07:22:27;;;;;;;11.47;8.93;;;2.30;99.90;;;;;;4993684;28;20221;-86
2020/12/29 07:24:56;;;;;;;8.50;7.63;;;2.20;99.90;;;;;;4997487;28;20295;-87
2020/12/29 07:27:27;;;;;;;10.23;8.43;;;2.20;99.90;;;;;;5000583;28;20201;-88
2020/12/29 07:29:56;;;;;;;8.63;7.83;;;2.30;99.90;;;;;;5006371;28;20287;-88
2020/12/29 07:32:23;;;;;;;10.27;8.13;;;2.40;99.90;;;;;;4998407;28;20224;-88
2020/12/29 07:34:50;;;;;;;8.73;7.90;;;2.40;99.90;;;;;;4997034;28;20217;-88
2020/12/29 07:37:21;;;;;;;11.57;9.97;;;2.40;99.90;;;;;;5015642;28;20199;-87
2020/12/29 07:39:48;;;;;;;11.23;8.27;;;2.40;99.90;;;;;;5015854;28;20200;-87
2020/12/29 07:42:15;;;;;;;8.80;7.77;;;2.30;99.90;;;;;;5008054;28;20231;-88
2020/12/29 07:44:42;;;;;;;10.23;8.77;;;2.30;99.90;;;;;;4979768;28;20225;-88
2020/12/29 07:47:09;;;;;;;10.73;8.77;;;2.30;99.90;;;;;;4998540;28;20212;-88
2020/12/29 07:49:35;;;;;;;9.30;7.77;;;2.30;99.90;;;;;;5006814;28;20272;-88
2020/12/29 07:52:02;;;;;;;10.20;8.40;;;2.30;99.90;;;;;;4995760;28;20688;-87
2020/12/29 07:54:30;;;;;;;9.07;8.17;;;2.40;99.90;;;;;;4996470;28;20189;-87
2020/12/29 07:56:57;;;;;;;9.33;8.50;;;2.40;99.90;;;;;;4979373;28;20190;-87
2020/12/29 07:59:24;;;;;;;9.77;7.97;;;2.40;99.90;;;;;;4980645;28;20198;-85
2020/12/29 08:01:55;;;;;;;8.83;7.93;;;2.40;99.90;;;;;;5009126;28;20216;-87
2020/12/29 08:04:23;;;;;;;8.80;7.90;;;2.50;99.90;;;;;;4981300;28;20200;-84
2020/12/29 08:06:50;;;;;;;10.50;9.30;;;2.40;99.90;;;;;;4993850;28;20271;-86
2020/12/29 08:09:16;;;;;;;9.70;8.47;;;2.50;99.90;;;;;;4984681;28;20295;-87
2020/12/29 08:11:45;;;;;;;9.63;8.27;;;2.60;99.90;;;;;;4985314;28;20225;-84
2020/12/29 08:14:16;;;;;;;12.47;9.67;;;2.50;99.90;;;;;;5000497;28;20584;-85
2020/12/29 08:20:45;;;;;;;12.23;9.20;;;2.40;99.90;;;;;;4998128;28;20284;-84
2020/12/29 08:23:12;;;;;;;13.93;8.80;;;2.30;99.90;;;;;;5000724;28;20209;-84
2020/12/29 08:25:39;;;;;;;10.30;7.90;;;2.30;99.90;;;;;;4967609;28;20255;-85
2020/12/29 08:28:07;;;;;;;10.17;8.70;;;2.40;99.90;;;;;;4983122;28;20661;-86
2020/12/29 08:30:35;;;;;;;9.87;8.70;;;2.50;99.90;;;;;;5000986;28;20204;-84
2020/12/29 08:33:04;;;;;;;8.70;7.73;;;2.60;99.90;;;;;;4999059;28;20261;-85
2020/12/29 08:35:33;;;;;;;9.70;8.67;;;2.60;99.90;;;;;;4980247;28;20233;-85
2020/12/29 08:38:11;;;;;;;11.23;10.03;;;2.90;99.90;;;;;;4999530;28;20201;-84
2020/12/29 08:40:45;;;;;;;8.47;7.67;;;2.80;99.90;;;;;;4983211;28;20559;-84
2020/12/29 08:43:15;;;;;;;9.98;8.85;;;2.80;99.90;;;;;;4999765;28;20684;-84
2020/12/29 08:45:42;;;;;;;8.87;8.07;;;2.90;99.90;;;;;;4989599;28;20210;-84
2020/12/29 08:48:09;;;;;;;9.13;7.80;;;2.80;99.90;;;;;;4999320;28;20547;-84
2020/12/29 08:50:37;;;;;;;10.57;7.60;;;3.10;99.90;;;;;;4965815;28;20206;-84
2020/12/29 08:53:05;;;;;;;9.33;7.40;;;2.90;99.90;;;;;;4998968;28;20221;-83
2020/12/29 08:55:33;;;;;;;8.87;7.97;;;3.00;99.90;;;;;;5021947;28;20223;-85
2020/12/29 08:58:01;;;;;;;9.73;8.73;;;2.90;99.90;;;;;;5020599;28;20622;-84
2020/12/29 09:00:30;;;;;;;8.13;7.17;;;3.10;99.90;;;;;;5003168;28;20193;-85
2020/12/29 09:02:57;;;;;;;7.93;7.13;;;3.00;99.90;;;;;;4983330;28;20225;-85
2020/12/29 09:05:26;;;;;;;7.67;6.80;;;3.20;99.90;;;;;;4993927;28;20236;-85
2020/12/29 09:07:54;;;;;;;7.73;6.73;;;3.40;99.90;;;;;;5014765;28;20304;-86
2020/12/29 09:10:21;;;;;;;9.03;6.83;;;3.40;99.90;;;;;;4999490;28;20190;-86
2020/12/29 09:12:48;;;;;;;7.70;6.20;;;3.70;99.90;;;;;;5008259;28;20300;-85
2020/12/29 09:15:25;;;;;;;6.50;5.90;;;3.50;99.90;;;;;;4996591;28;20253;-87
2020/12/29 09:17:57;;;;;;;6.93;6.23;;;3.70;99.90;;;;;;5007418;28;20197;-84
2020/12/29 09:20:26;;;;;;;8.17;6.53;;;3.80;99.90;;;;;;5011894;28;20684;-84
2020/12/29 09:22:58;;;;;;;8.10;6.23;;;3.80;99.90;;;;;;4992167;28;20217;-85
2020/12/29 09:25:30;;;;;;;7.50;6.70;;;3.80;99.90;;;;;;5010129;28;20315;-83
2020/12/29 09:28:18;;;;;;;6.83;6.23;;;3.80;99.90;;;;;;5008148;28;20694;-84
2020/12/29 09:30:47;;;;;;;6.90;6.00;;;3.80;99.90;;;;;;5001580;28;20216;-84
2020/12/29 09:33:20;;;;;;;8.00;7.03;;;3.80;99.90;;;;;;4983033;28;20194;-84
2020/12/29 09:35:47;;;;;;;6.87;5.73;;;3.50;99.90;;;;;;4983474;28;20208;-85
2020/12/29 09:38:14;;;;;;;7.20;6.30;;;3.30;99.90;;;;;;5000211;28;20282;-83
2020/12/29 09:40:41;;;;;;;7.57;6.88;;;3.40;99.90;;;;;;4982273;28;20268;-84
2020/12/29 09:43:08;;;;;;;6.90;5.60;;;3.50;99.90;;;;;;4982891;28;20240;-84
2020/12/29 09:45:34;;;;;;;7.40;6.63;;;3.60;99.90;;;;;;5000393;28;20224;-84
2020/12/29 09:48:01;;;;;;;6.57;5.83;;;3.70;99.90;;;;;;4983839;28;20204;-83
2020/12/29 09:50:28;;;;;;;7.33;6.63;;;4.00;99.90;;;;;;5002037;28;20204;-84
2020/12/29 09:52:58;;;;;;;7.67;6.30;;;3.80;99.90;;;;;;4984965;28;20751;-82
2020/12/29 09:55:24;;;;;;;7.53;6.60;;;3.90;99.90;;;;;;4995063;28;20227;-84
2020/12/29 09:57:51;;;;;;;8.30;6.53;;;3.90;99.90;;;;;;5002945;28;20195;-87
2020/12/29 10:00:18;;;;;;;7.23;6.50;;;4.10;99.90;;;;;;5019960;28;20193;-86
2020/12/29 10:02:44;;;;;;;6.57;5.97;;;4.50;99.90;;;;;;5018773;28;20240;-88
2020/12/29 10:05:11;;;;;;;6.70;6.10;;;4.40;99.90;;;;;;5011926;28;20205;-87
2020/12/29 10:11:42;;;;;;;6.35;5.75;;;4.60;99.90;;;;;;5006035;28;20212;-84
2020/12/29 10:14:08;;;;;;;7.47;6.67;;;4.60;99.90;;;;;;4971690;28;20205;-85
2020/12/29 10:16:35;;;;;;;8.30;6.50;;;4.80;99.90;;;;;;4973060;28;20237;-84
2020/12/29 10:19:02;;;;;;;6.57;5.67;;;4.90;99.90;;;;;;4988924;28;20563;-85
2020/12/29 10:21:29;;;;;;;6.65;6.05;;;4.90;99.90;;;;;;4998434;28;20240;-84
2020/12/29 10:23:55;;;;;;;7.30;6.53;;;4.90;99.90;;;;;;4996277;28;20271;-90
2020/12/29 10:26:22;;;;;;;5.87;5.33;;;5.00;99.90;;;;;;4995634;28;20249;-88
2020/12/29 10:28:50;;;;;;;7.47;6.10;;;5.00;99.90;;;;;;4997448;28;20473;-88
2020/12/29 10:31:17;;;;;;;7.10;5.67;;;4.90;99.90;;;;;;4988641;28;20225;-88
2020/12/29 10:33:43;;;;;;;7.63;5.83;;;4.90;99.90;;;;;;4996739;28;20209;-88
2020/12/29 10:36:10;;;;;;;6.67;6.07;;;5.10;99.90;;;;;;4996736;28;20200;-88
2020/12/29 10:38:37;;;;;;;8.20;6.90;;;5.10;99.90;;;;;;4995084;28;20197;-88
2020/12/29 10:41:03;;;;;;;5.73;5.20;;;4.80;99.90;;;;;;4997196;28;20209;-88
2020/12/29 10:43:30;;;;;;;6.37;5.77;;;4.80;99.90;;;;;;4985794;28;20216;-86
2020/12/29 10:45:58;;;;;;;6.67;5.87;;;5.00;99.90;;;;;;4999553;28;20213;-89
2020/12/29 10:48:27;;;;;;;6.33;5.67;;;4.90;99.90;;;;;;4996725;28;20216;-87
2020/12/29 10:50:55;;;;;;;5.67;5.27;;;5.00;99.90;;;;;;4984776;28;20205;-87
2020/12/29 10:53:22;;;;;;;5.70;5.20;;;5.00;99.90;;;;;;4960247;28;20623;-87
2020/12/29 10:55:48;;;;;;;6.70;5.70;;;4.90;99.90;;;;;;4994515;28;20236;-87
2020/12/29 10:58:16;;;;;;;6.60;6.03;;;4.90;99.90;;;;;;4996584;28;20229;-88
2020/12/29 11:00:42;;;;;;;7.10;6.40;;;4.60;99.90;;;;;;4999826;28;20200;-87
2020/12/29 11:03:10;;;;;;;7.50;6.80;;;4.80;99.90;;;;;;4998884;28;20248;-86
2020/12/29 11:05:37;;;;;;;8.53;6.30;;;5.10;99.90;;;;;;5016984;28;20232;-88
2020/12/29 11:08:04;;;;;;;7.80;7.07;;;5.10;99.90;;;;;;5015950;28;20652;-88
2020/12/29 11:10:31;;;;;;;9.77;7.07;;;5.10;99.90;;;;;;4998971;28;20212;-88
2020/12/29 11:12:57;;;;;;;6.50;6.00;;;5.00;99.90;;;;;;5014431;28;20226;-87
2020/12/29 11:15:26;;;;;;;6.70;6.10;;;5.30;99.90;;;;;;5020381;28;20195;-87
2020/12/29 11:17:53;;;;;;;8.90;6.27;;;5.00;99.90;;;;;;4998020;28;20203;-88
2020/12/29 11:20:21;;;;;;;6.77;6.17;;;5.10;99.90;;;;;;5023398;28;20196;-89
2020/12/29 11:22:51;;;;;;;6.23;5.53;;;5.10;99.90;;;;;;5010580;28;20213;-88
2020/12/29 11:25:18;;;;;;;7.73;7.03;;;5.40;99.90;;;;;;5015172;28;20228;-88
2020/12/29 11:27:45;;;;;;;7.23;5.40;;;5.40;99.90;;;;;;5004843;28;20200;-87
2020/12/29 11:30:11;;;;;;;8.05;5.90;;;5.30;99.90;;;;;;4997258;28;20237;-85
2020/12/29 11:32:38;;;;;;;8.97;7.07;;;5.20;99.90;;;;;;4983145;28;20217;-79
2020/12/29 11:35:04;;;;;;;7.80;6.63;;;5.00;99.90;;;;;;4993926;28;20201;-79
2020/12/29 11:37:32;;;;;;;6.83;6.20;;;5.20;99.90;;;;;;4993250;28;20689;-79
2020/12/29 11:39:58;;;;;;;8.70;7.10;;;5.10;99.90;;;;;;5013775;28;20212;-78
2020/12/29 11:42:27;;;;;;;7.90;7.10;;;5.30;99.90;;;;;;5012187;28;20224;-80
2020/12/29 11:44:53;;;;;;;7.17;6.47;;;5.50;99.90;;;;;;4933939;28;20220;-87
2020/12/29 11:47:20;;;;;;;7.60;6.80;;;5.70;99.90;;;;;;5027263;28;20203;-88
2020/12/29 11:49:50;;;;;;;8.53;6.30;;;5.80;99.90;;;;;;4999349;28;20251;-89
2020/12/29 11:52:16;;;;;;;8.33;6.27;;;5.80;99.90;;;;;;5004329;28;20590;-88
2020/12/29 11:54:44;;;;;;;6.10;5.57;;;5.70;99.90;;;;;;4996407;28;20201;-88
2020/12/29 11:57:11;;;;;;;7.67;6.87;;;5.70;99.90;;;;;;4995863;28;20201;-88
2020/12/29 11:59:39;;;;;;;6.65;5.93;;;5.80;99.90;;;;;;4995188;28;20198;-88
2020/12/29 12:02:08;;;;;;;7.73;6.03;;;5.80;99.90;;;;;;4960761;28;20213;-87
2020/12/29 12:04:38;;;;;;;6.47;5.83;;;6.20;99.90;;;;;;4980950;28;20206;-88
2020/12/29 12:07:10;;;;;;;6.77;5.83;;;5.90;99.90;;;;;;4976951;28;20268;-88
2020/12/29 12:09:37;;;;;;;9.27;5.53;;;6.00;99.90;;;;;;4995604;28;20197;-87
2020/12/29 12:12:06;;;;;;;7.77;6.97;;;5.90;99.90;;;;;;4994650;28;20220;-87
2020/12/29 12:14:34;;;;;;;6.13;5.57;;;5.50;99.90;;;;;;4994789;28;20201;-88
2020/12/29 12:17:02;;;;;;;7.57;6.63;;;5.40;99.90;;;;;;4961586;28;20209;-87
2020/12/29 12:19:29;;;;;;;8.50;5.30;;;5.20;99.90;;;;;;5002924;28;20262;-87
2020/12/29 12:21:56;;;;;;;7.77;6.97;;;5.10;99.90;;;;;;5015280;28;20283;-85
2020/12/29 12:24:23;;;;;;;7.53;6.67;;;5.00;99.90;;;;;;4978995;28;20203;-87
2020/12/29 12:26:52;;;;;;;7.83;6.57;;;5.10;99.90;;;;;;4983071;28;20236;-88
2020/12/29 12:29:20;;;;;;;8.27;6.63;;;5.20;99.90;;;;;;5015112;28;20614;-86
2020/12/29 12:31:47;;;;;;;10.83;6.30;;;4.90;99.90;;;;;;4969967;28;20225;-87
2020/12/29 12:34:14;;;;;;;6.87;6.27;;;5.10;99.90;;;;;;4996364;28;20290;-87
2020/12/29 12:36:40;;;;;;;7.00;6.33;;;5.00;99.90;;;;;;5016078;28;20181;-86
2020/12/29 12:39:07;;;;;;;7.80;7.00;;;5.10;99.90;;;;;;4964990;28;20244;-88
2020/12/29 12:41:34;;;;;;;7.77;7.03;;;5.10;99.90;;;;;;4977952;28;20217;-86
2020/12/29 12:44:01;;;;;;;10.80;6.67;;;5.20;99.90;;;;;;4964497;28;20223;-87
2020/12/29 12:46:29;;;;;;;9.00;7.37;;;4.80;99.90;;;;;;4978958;28;20287;-87
2020/12/29 12:48:56;;;;;;;7.93;7.23;;;4.70;99.90;;;;;;4985155;28;20201;-87
2020/12/29 12:51:23;;;;;;;7.33;6.60;;;5.00;99.90;;;;;;5021357;28;20267;-87
2020/12/29 12:53:51;;;;;;;7.87;6.57;;;4.70;99.90;;;;;;4989872;28;20205;-86
2020/12/29 12:56:19;;;;;;;7.50;6.67;;;4.80;99.90;;;;;;4995994;28;20208;-90
2020/12/29 12:58:49;;;;;;;8.70;6.73;;;5.00;99.90;;;;;;5019493;28;20229;-88
2020/12/29 13:01:19;;;;;;;7.37;6.60;;;5.00;99.90;;;;;;5014047;28;20704;-85
2020/12/29 13:03:47;;;;;;;7.60;6.83;;;4.90;99.90;;;;;;4999996;28;20208;-88